Hurley, Missouri
Current Conditions -  °F | °C
As of 4:15 PM on Friday 31 Oct 2014 (Local Time) from KFWB Reporting Station
Clear Clear  
Wind Chill: 41°   Ceiling: Unl
Heat Index: 46°   Visibility: 10mi
Dew Point: 18°   Wind: 12mph
Humidity: 32%   Direction: 360°N
Pressure: 30.34"   Gusts: 21mph
Location:  36.93°N, 93.5°W
Report Text: KFWB 312115Z AUTO 36010G18KT 10SM CLR 08/M08 A3034 RMK AO2
Loading
Personal Weather Stations






























Interactive Weather Map New forecast layout! Learn more

10-Day Weather Forecast

Advertisements
Track Severe Weather on mobile